KVDI/VDI METAR and TAF weather

Enter ICAO airport designator
Station Type Date Time Source
KVDI METAR 2020/07/11 01:35 UTC NOAA

KVDI 110135Z AUTO 00000KT 10SM CLR 30/22 A2989 RMK AO2 LTG DSNT E


Station Type Date Time Source
KVDI Decoded METAR 2020/07/11 01:35 UTC NOAA

Vidalia, Vidalia Municipal Airport, GA, United States (KVDI) 32-11-33N 082-22-19W
Jul 10, 2020 - 09:35 PM EDT / 2020.07.11 0135 UTC
Wind: Calm:0
Visibility: 10 mile(s):0
Sky conditions: clear
Weather: Lightning observed
Temperature: 86 F (30 C)
Heat index: 91.8 F (33.2 C):1
Dew Point: 71 F (22 C)
Relative Humidity: 62%
Pressure (altimeter): 29.89 in. Hg (1012 hPa)
ob: KVDI 110135Z AUTO 00000KT 10SM CLR 30/22 A2989 RMK AO2 LTG DSNT E
cycle: 1

Station Type Date Time Source
KVDI TAF UTC NOAA

Error!

Example: see airport list